Time;durP1;ratioP1;P1;durP2;ratioP2;P2;SDS_P1;SDS_P2;PMS_P1;PMS_P2;Temp;Humidity;BMP_temperature;BMP_pressure;BME280_temperature;BME280_humidity;BME280_pressure;Samples;Min_cycle;Max_cycle;Signal;HPM_P1;HPM_P2
2022/07/05 00:02:03;;;;;;;;;0.00;0.00;;;;;-146.67;28.77;74310.25;5060779;28;61827;-84
2022/07/05 00:04:28;;;;;;;;;0.00;0.00;;;;;-146.67;28.75;74302.25;5061743;28;61938;-84
2022/07/05 00:09:37;;;;;;;;;0.00;0.00;;;;;-146.67;28.75;74312.25;5062162;28;62051;-84
2022/07/05 00:12:04;;;;;;;;;0.00;0.00;;;;;-146.67;28.62;74310.25;5062526;28;62118;-84
2022/07/05 00:14:29;;;;;;;;;0.00;0.00;;;;;-146.67;28.28;74330.22;5062603;28;61773;-84
2022/07/05 00:16:55;;;;;;;;;0.00;0.00;;;;;-146.67;28.46;74336.19;5060373;28;64003;-84
2022/07/05 00:19:20;;;;;;;;;0.00;0.00;;;;;-146.67;28.78;74356.16;5060779;28;61756;-84
2022/07/05 00:21:46;;;;;;;;;0.00;0.00;;;;;-146.67;29.06;74366.16;5061001;28;61729;-84
2022/07/05 00:24:11;;;;;;;;;0.00;0.00;;;;;-146.67;29.01;74368.16;5061569;28;61713;-84
2022/07/05 00:26:36;;;;;;;;;0.00;0.00;;;;;-146.67;28.25;74372.13;5060373;28;63589;-84
2022/07/05 00:29:02;;;;;;;;;0.00;0.00;;;;;-146.67;29.01;74372.13;5062070;28;61750;-84
2022/07/05 00:31:27;;;;;;;;;0.00;0.00;;;;;-146.67;29.15;74386.13;5062279;28;61700;-84
2022/07/05 00:33:53;;;;;;;;;0.00;0.00;;;;;-146.67;28.83;74398.09;5062122;28;61739;-84
2022/07/05 00:36:18;;;;;;;;;0.00;0.00;;;;;-146.67;29.18;74406.06;5061293;28;63136;-84
2022/07/05 00:38:44;;;;;;;;;0.00;0.00;;;;;-146.67;29.18;74412.06;5061890;28;61924;-84
2022/07/05 00:41:09;;;;;;;;;0.00;0.00;;;;;-146.67;29.78;74426.03;5063690;28;61913;-84
2022/07/05 00:43:35;;;;;;;;;0.00;0.00;;;;;-146.67;29.53;74430.03;5064484;28;62214;-84
2022/07/05 00:46:00;;;;;;;;;0.00;0.00;;;;;-146.67;28.84;74434.03;5064917;28;61904;-84
2022/07/05 00:48:25;;;;;;;;;0.00;0.00;;;;;-146.67;29.53;74450.00;5065495;28;62052;-84
2022/07/05 00:50:51;;;;;;;;;0.00;0.00;;;;;-146.67;28.92;74459.97;5065564;28;62083;-84
2022/07/05 00:53:17;;;;;;;;;0.00;0.00;;;;;-146.67;29.63;74473.97;5064792;28;61964;-84
2022/07/05 00:55:44;;;;;;;;;0.00;0.00;;;;;-146.67;29.36;74471.97;5063743;28;63933;-84
2022/07/05 00:58:11;;;;;;;;;0.00;0.00;;;;;-146.67;29.67;74483.94;5065692;28;61885;-84
2022/07/05 01:00:36;;;;;;;;;0.00;0.00;;;;;-146.67;29.80;74493.91;5065305;28;61824;-84
2022/07/05 01:03:02;;;;;;;;;0.00;0.00;;;;;-146.67;29.64;74485.94;5065542;28;61791;-84
2022/07/05 01:05:29;;;;;;;;;0.00;0.00;;;;;-146.67;29.68;74479.94;5064418;28;61835;-85
2022/07/05 01:07:56;;;;;;;;;0.00;0.00;;;;;-146.67;29.07;74505.91;5064792;28;61717;-84
2022/07/05 01:10:22;;;;;;;;;0.00;0.00;;;;;-146.67;29.44;74527.84;5063734;28;61901;-84
2022/07/05 01:12:47;;;;;;;;;0.00;0.00;;;;;-146.67;29.48;74545.81;5065425;28;61876;-84
2022/07/05 01:15:13;;;;;;;;;0.00;0.00;;;;;-146.67;29.66;74559.81;5064463;28;61913;-84
2022/07/05 01:17:39;;;;;;;;;0.00;0.00;;;;;-146.67;30.11;74571.78;5064954;28;61758;-84
2022/07/05 01:20:07;;;;;;;;;0.00;0.00;;;;;-146.67;29.66;74567.78;5064836;28;61781;-84
2022/07/05 01:22:56;;;;;;;;;0.00;0.00;;;;;-146.67;30.00;74575.78;5062651;28;62042;-84
2022/07/05 01:25:26;;;;;;;;;0.00;0.00;;;;;-146.67;29.62;74583.75;5064228;28;63050;-84
2022/07/05 01:27:53;;;;;;;;;0.00;0.00;;;;;-146.67;30.03;74597.75;5065058;28;61830;-84
2022/07/05 01:30:20;;;;;;;;;0.00;0.00;;;;;-146.67;29.95;74599.72;5064908;28;61917;-84
2022/07/05 01:32:45;;;;;;;;;0.00;0.00;;;;;-146.67;30.35;74597.75;5063888;28;61865;-84
2022/07/05 01:35:12;;;;;;;;;0.00;0.00;;;;;-146.67;30.17;74613.72;5063873;28;62505;-84
2022/07/05 01:37:37;;;;;;;;;0.00;0.00;;;;;-146.67;29.75;74625.69;5064321;28;61764;-84
2022/07/05 01:40:04;;;;;;;;;0.00;0.00;;;;;-146.67;30.12;74635.66;5063443;28;61956;-84
2022/07/05 01:42:29;;;;;;;;;0.00;0.00;;;;;-146.67;30.02;74641.66;5064639;28;61759;-84
2022/07/05 01:44:55;;;;;;;;;0.00;0.00;;;;;-146.67;30.29;74657.63;5064030;28;62025;-84
2022/07/05 01:47:21;;;;;;;;;0.00;0.00;;;;;-146.67;30.75;74663.63;5063479;28;61815;-84
2022/07/05 01:49:49;;;;;;;;;0.00;0.00;;;;;-146.67;30.67;74663.63;5064375;28;61916;-84
2022/07/05 01:52:16;;;;;;;;;0.00;0.00;;;;;-146.67;30.34;74667.63;5062864;28;62162;-84
2022/07/05 01:54:43;;;;;;;;;0.00;0.00;;;;;-146.67;30.94;74677.59;5063358;28;62858;-84
2022/07/05 01:57:09;;;;;;;;;0.00;0.00;;;;;-146.67;30.67;74671.59;5064490;28;62040;-84
2022/07/05 01:59:36;;;;;;;;;0.00;0.00;;;;;-146.67;30.75;74667.63;5064591;28;62007;-84
2022/07/05 02:02:03;;;;;;;;;0.00;0.00;;;;;-146.67;30.62;74663.63;5064861;28;61934;-84
2022/07/05 02:04:30;;;;;;;;;0.00;0.00;;;;;-146.67;30.78;74659.63;5061658;28;64018;-84
2022/07/05 02:06:56;;;;;;;;;0.00;0.00;;;;;-146.67;31.20;74671.59;5064245;28;61834;-84
2022/07/05 02:09:21;;;;;;;;;0.00;0.00;;;;;-146.67;31.17;74659.63;5064556;28;61918;-84
2022/07/05 02:11:47;;;;;;;;;0.00;0.00;;;;;-146.67;30.89;74657.63;5064490;28;61710;-84
2022/07/05 02:14:12;;;;;;;;;0.00;0.00;;;;;-146.67;31.00;74649.66;5063725;28;62759;-84
2022/07/05 02:16:38;;;;;;;;;0.00;0.00;;;;;-146.67;30.68;74647.66;5063897;28;62182;-84
2022/07/05 02:19:04;;;;;;;;;0.00;0.00;;;;;-146.67;31.11;74655.63;5063416;28;62051;-84
2022/07/05 02:21:29;;;;;;;;;0.00;0.00;;;;;-146.67;30.97;74649.66;5064522;28;62007;-84
2022/07/05 02:23:55;;;;;;;;;0.00;0.00;;;;;-146.67;30.74;74663.63;5061566;28;63883;-83
2022/07/05 02:26:21;;;;;;;;;0.00;0.00;;;;;-146.67;31.02;74677.59;5064037;28;61694;-84
2022/07/05 02:28:46;;;;;;;;;0.75;0.75;;;;;-146.67;31.17;74689.56;5069121;28;61688;-83
2022/07/05 02:31:12;;;;;;;;;0.00;0.00;;;;;-146.67;31.38;74695.56;5069440;28;61300;-84
2022/07/05 02:33:38;;;;;;;;;0.00;0.00;;;;;-146.67;31.09;74689.56;5062841;28;61795;-84
2022/07/05 02:36:12;;;;;;;;;0.00;0.00;;;;;-146.67;31.43;74689.56;5063909;28;61923;-83
2022/07/05 02:38:38;;;;;;;;;0.00;0.00;;;;;-146.67;31.26;74695.56;5063679;28;61759;-84
2022/07/05 02:41:08;;;;;;;;;0.00;0.00;;;;;-146.67;31.37;74695.56;5064252;28;61979;-84
2022/07/05 02:43:34;;;;;;;;;0.00;0.00;;;;;-146.67;31.66;74701.56;5061972;28;63853;-84
2022/07/05 02:46:00;;;;;;;;;0.00;0.00;;;;;-146.67;31.57;74715.53;5063680;28;61901;-85
2022/07/05 02:48:26;;;;;;;;;0.00;0.00;;;;;-146.67;31.65;74711.53;5063603;28;61722;-84
2022/07/05 02:50:51;;;;;;;;;0.00;0.00;;;;;-146.67;31.20;74711.53;5063407;28;61675;-84
2022/07/05 02:53:17;;;;;;;;;0.00;0.00;;;;;-146.67;31.51;74713.53;5061369;28;64684;-84
2022/07/05 02:55:42;;;;;;;;;0.00;0.00;;;;;-146.67;31.56;74709.53;5063461;28;61733;-84
2022/07/05 02:58:07;;;;;;;;;0.00;0.00;;;;;-146.67;31.74;74709.53;5063707;28;61743;-84
2022/07/05 03:00:33;;;;;;;;;0.00;0.00;;;;;-146.67;31.14;74713.53;5064031;28;61799;-84
2022/07/05 03:02:58;;;;;;;;;0.00;0.00;;;;;-146.67;31.71;74715.53;5061093;28;63919;-84
2022/07/05 03:05:24;;;;;;;;;0.00;0.00;;;;;-146.67;31.96;74707.53;5061936;28;61876;-84
2022/07/05 03:07:49;;;;;;;;;0.00;0.00;;;;;-146.67;31.75;74709.53;5061857;28;62037;-83
2022/07/05 03:10:15;;;;;;;;;0.00;0.00;;;;;-146.67;31.60;74709.53;5063800;28;61711;-84
2022/07/05 03:12:40;;;;;;;;;0.00;0.00;;;;;-146.67;31.22;74715.53;5062186;28;62747;-84
2022/07/05 03:15:06;;;;;;;;;0.00;0.00;;;;;-146.67;31.64;74727.50;5063222;28;62317;-84
2022/07/05 03:17:32;;;;;;;;;0.00;0.00;;;;;-146.67;31.63;74735.50;5063087;28;62165;-84
2022/07/05 03:19:57;;;;;;;;;0.00;0.00;;;;;-146.67;32.31;74731.50;5063095;28;61991;-84
2022/07/05 03:22:23;;;;;;;;;0.00;0.00;;;;;-146.67;32.18;74723.50;5061349;28;63815;-84
2022/07/05 03:24:48;;;;;;;;;2.75;1.00;;;;;-146.67;32.20;74717.53;5060904;28;61889;-84
2022/07/05 03:27:14;;;;;;;;;0.00;0.00;;;;;-146.67;31.62;74729.50;5062992;28;61909;-84
2022/07/05 03:29:39;;;;;;;;;0.00;0.00;;;;;-146.67;32.07;74753.47;5063360;28;61813;-84
2022/07/05 03:32:05;;;;;;;;;0.00;0.00;;;;;-146.67;32.40;74767.44;5061959;28;61952;-84
2022/07/05 03:34:30;;;;;;;;;0.00;0.00;;;;;-146.67;31.96;74773.44;5062669;28;62047;-84
2022/07/05 03:36:56;;;;;;;;;0.25;0.25;;;;;-146.67;32.42;74771.44;5062660;28;61716;-84
2022/07/05 03:39:21;;;;;;;;;0.00;0.00;;;;;-146.67;32.24;74791.41;5063307;28;61917;-84
2022/07/05 03:41:47;;;;;;;;;0.00;0.00;;;;;-146.67;32.51;74789.41;5061046;28;63631;-83
2022/07/05 03:44:12;;;;;;;;;0.00;0.00;;;;;-146.67;32.18;74793.41;5062661;28;61852;-84
2022/07/05 03:46:38;;;;;;;;;0.00;0.00;;;;;-146.67;32.96;74803.38;5062354;28;61920;-84
2022/07/05 03:49:03;;;;;;;;;0.00;0.00;;;;;-146.67;32.75;74811.38;5061231;28;62176;-83
2022/07/05 03:51:28;;;;;;;;;0.00;0.00;;;;;-146.67;31.95;74815.38;5062269;28;61896;-83
2022/07/05 03:53:54;;;;;;;;;0.00;0.00;;;;;-146.67;32.40;74823.34;5062248;28;61936;-84
2022/07/05 03:56:22;;;;;;;;;0.00;0.00;;;;;-146.67;32.81;74835.31;5062729;28;62072;-84
2022/07/05 03:58:49;;;;;;;;;0.00;0.00;;;;;-146.67;32.73;74821.34;5062716;28;61896;-83
2022/07/05 04:01:15;;;;;;;;;0.00;0.00;;;;;-146.67;32.59;74825.34;5060408;28;63899;-84
2022/07/05 04:03:41;;;;;;;;;0.00;0.00;;;;;-146.67;33.13;74813.38;5062647;28;61848;-84
2022/07/05 04:06:10;;;;;;;;;1.00;1.00;;;;;-146.67;32.73;74807.38;5061866;28;62181;-84
2022/07/05 04:08:36;;;;;;;;;0.00;0.00;;;;;-146.67;32.74;74799.38;5062537;28;62003;-84
2022/07/05 04:11:02;;;;;;;;;0.00;0.00;;;;;-146.67;32.78;74779.41;5060400;28;63683;-84
2022/07/05 04:13:27;;;;;;;;;0.00;0.00;;;;;-146.67;32.68;74771.44;5060977;28;61992;-83
2022/07/05 04:15:55;;;;;;;;;0.00;0.00;;;;;-146.67;32.44;74755.47;5061401;28;62126;-83
2022/07/05 04:18:21;;;;;;;;;0.00;0.00;;;;;-146.67;32.66;74759.47;5062940;28;62280;-84
2022/07/05 04:20:46;;;;;;;;;0.00;0.00;;;;;-146.67;32.55;74747.47;5061606;28;61949;-84
2022/07/05 04:23:12;;;;;;;;;0.00;0.00;;;;;-146.67;32.43;74747.47;5061535;28;62369;-84
2022/07/05 04:25:37;;;;;;;;;0.00;0.00;;;;;-146.67;32.56;74747.47;5062512;28;61794;-84
2022/07/05 04:28:03;;;;;;;;;0.00;0.00;;;;;-146.67;32.46;74743.47;5062282;28;61886;-84
2022/07/05 04:30:28;;;;;;;;;0.00;0.00;;;;;-146.67;31.99;74749.47;5061199;28;62728;-84
2022/07/05 04:32:54;;;;;;;;;0.00;0.00;;;;;-146.67;32.49;74751.47;5062258;28;61835;-83
2022/07/05 04:35:20;;;;;;;;;0.00;0.00;;;;;-146.67;32.40;74737.50;5061783;28;61981;-84
2022/07/05 04:37:45;;;;;;;;;0.00;0.00;;;;;-146.67;32.61;74739.50;5060912;28;61783;-84
2022/07/05 04:40:13;;;;;;;;;0.00;0.00;;;;;-146.67;32.40;74709.53;5061006;28;62098;-84
2022/07/05 04:42:39;;;;;;;;;0.00;0.00;;;;;-146.67;31.74;74725.50;5062194;28;61898;-83
2022/07/05 04:45:05;;;;;;;;;0.00;0.00;;;;;-146.67;32.30;74735.50;5061614;28;61797;-83
2022/07/05 04:47:31;;;;;;;;;0.00;0.00;;;;;-146.67;32.67;74741.50;5062330;28;61933;-84
2022/07/05 04:49:57;;;;;;;;;0.00;0.00;;;;;-146.67;32.61;74759.47;5059740;28;63578;-83
2022/07/05 04:52:24;;;;;;;;;0.00;0.00;;;;;-146.67;32.23;74777.44;5062027;28;62106;-83
2022/07/05 04:54:50;;;;;;;;;0.00;0.00;;;;;-146.67;32.64;74801.38;5060251;28;61927;-84
2022/07/05 04:57:15;;;;;;;;;0.00;0.00;;;;;-146.67;32.63;74811.38;5077248;28;61887;-83
2022/07/05 04:59:40;;;;;;;;;0.00;0.00;;;;;-146.67;32.64;74801.38;5061049;28;62057;-83
2022/07/05 05:02:06;;;;;;;;;0.00;0.00;;;;;-146.67;33.10;74783.41;5061856;28;61893;-83
2022/07/05 05:04:32;;;;;;;;;0.00;0.00;;;;;-146.67;33.11;74787.41;5061709;28;61868;-83
2022/07/05 05:06:58;;;;;;;;;0.00;0.00;;;;;-146.67;32.98;74765.44;5061988;28;61860;-85
2022/07/05 05:09:24;;;;;;;;;4.25;3.00;;;;;-146.67;32.83;74761.44;5060697;28;61940;-84
2022/07/05 05:11:49;;;;;;;;;0.00;0.00;;;;;-146.67;32.03;74745.47;5061647;28;62156;-81
2022/07/05 05:14:15;;;;;;;;;0.00;0.00;;;;;-146.67;31.93;74749.47;5060955;28;61988;-81
2022/07/05 05:16:40;;;;;;;;;0.00;0.00;;;;;-146.67;32.45;74759.47;5061973;28;61790;-80
2022/07/05 05:19:07;;;;;;;;;3.25;2.00;;;;;-146.67;32.88;74761.44;5060363;28;62060;-82
2022/07/05 05:21:32;;;;;;;;;0.00;0.00;;;;;-146.67;32.50;74759.47;5061728;28;61891;-86
2022/07/05 05:23:58;;;;;;;;;0.00;0.00;;;;;-146.67;32.67;74761.44;5061260;28;61941;-90
2022/07/05 05:26:23;;;;;;;;;0.00;0.00;;;;;-146.67;32.75;74751.47;5077561;28;63154;-87
2022/07/05 05:28:49;;;;;;;;;0.00;0.00;;;;;-146.67;32.33;74729.50;5063127;28;61950;-80
2022/07/05 05:31:14;;;;;;;;;0.25;0.00;;;;;-146.67;32.13;74747.47;5064865;28;61986;-78
2022/07/05 05:33:40;;;;;;;;;0.00;0.00;;;;;-146.67;32.20;74737.50;5064790;28;61961;-79
2022/07/05 05:36:06;;;;;;;;;0.00;0.00;;;;;-146.67;32.28;74727.50;5064573;28;61829;-76
2022/07/05 05:38:32;;;;;;;;;0.00;0.00;;;;;-146.67;31.72;74697.56;5071252;28;62615;-80
2022/07/05 05:40:58;;;;;;;;;0.00;0.00;;;;;-146.67;32.04;74635.66;5073481;28;61951;-80
2022/07/05 05:43:23;;;;;;;;;0.00;0.00;;;;;-146.67;31.45;74577.78;5072862;28;62123;-81
2022/07/05 05:45:49;;;;;;;;;0.00;0.00;;;;;-146.67;31.52;74567.78;5074601;28;61966;-87
2022/07/05 05:48:14;;;;;;;;;0.00;0.00;;;;;-146.67;31.48;74505.91;5073274;28;63777;-87
2022/07/05 05:50:40;;;;;;;;;0.00;0.00;;;;;-146.67;30.65;74436.03;5073406;28;61958;-87
2022/07/05 05:53:06;;;;;;;;;0.00;0.00;;;;;-146.67;30.19;74410.06;5072840;27;61782;-87
2022/07/05 05:55:33;;;;;;;;;0.00;0.00;;;;;-146.67;30.15;74418.06;5072822;28;62173;-87
2022/07/05 05:58:16;;;;;;;;;0.00;0.00;;;;;-146.67;30.43;74396.09;5074204;28;63205;-84
2022/07/05 06:00:42;;;;;;;;;0.00;0.00;;;;;-146.67;30.09;74372.13;5075330;28;61938;-85
2022/07/05 06:03:09;;;;;;;;;0.00;0.00;;;;;-146.67;30.34;74362.16;5063798;28;61936;-83
2022/07/05 06:05:34;;;;;;;;;0.00;0.00;;;;;-146.67;29.95;74362.16;5063618;28;61770;-83
2022/07/05 06:08:00;;;;;;;;;0.00;0.00;;;;;-146.67;30.15;74364.16;5062138;28;63788;-81
2022/07/05 06:10:31;;;;;;;;;0.00;0.00;;;;;-146.67;30.17;74364.16;5074391;28;61934;-88
2022/07/05 06:12:59;;;;;;;;;0.00;0.00;;;;;-146.67;30.05;74382.13;5073013;27;61814;-86
2022/07/05 06:15:25;;;;;;;;;0.00;0.00;;;;;-146.67;30.36;74398.09;5062921;28;61791;-86
2022/07/05 06:17:51;;;;;;;;;0.00;0.00;;;;;-146.67;29.95;74404.09;5062430;28;65016;-87
2022/07/05 06:20:20;;;;;;;;;0.00;0.00;;;;;-146.67;30.32;74394.09;5063658;28;61837;-86
2022/07/05 06:22:46;;;;;;;;;0.00;0.00;;;;;-146.67;30.34;74380.13;5064096;28;61958;-86
2022/07/05 06:25:12;;;;;;;;;0.00;0.00;;;;;-146.67;29.84;74368.16;5062746;28;62026;-85
2022/07/05 06:27:43;;;;;;;;;0.00;0.00;;;;;-146.67;30.11;74326.22;5062795;28;61985;-85
2022/07/05 06:30:10;;;;;;;;;0.00;0.00;;;;;-146.67;29.24;74194.47;5064120;28;61837;-86
2022/07/05 06:32:36;;;;;;;;;0.00;0.00;;;;;-146.67;28.46;74086.66;5062687;28;61979;-80
2022/07/05 06:35:01;;;;;;;;;0.00;0.00;;;;;-146.67;28.45;74098.66;5063848;28;61963;-80
2022/07/05 06:37:27;;;;;;;;;0.00;0.00;;;;;-146.67;28.17;74042.75;5063202;28;61738;-80
2022/07/05 06:39:52;;;;;;;;;0.00;0.00;;;;;-146.67;28.21;74094.66;5061586;28;61877;-80
2022/07/05 06:42:17;;;;;;;;;0.00;0.00;;;;;-146.67;28.67;74162.53;5063814;28;61806;-80
2022/07/05 06:44:43;;;;;;;;;0.00;0.00;;;;;-146.67;29.26;74204.44;5062727;28;62078;-79
2022/07/05 06:47:09;;;;;;;;;0.00;0.00;;;;;-146.67;29.38;74244.38;5061649;28;63991;-77
2022/07/05 06:49:35;;;;;;;;;0.00;0.00;;;;;-146.67;29.61;74274.31;5073066;28;61648;-82
2022/07/05 06:52:00;;;;;;;;;0.00;0.00;;;;;-146.67;29.81;74286.28;5072177;27;61765;-82
2022/07/05 06:54:26;;;;;;;;;0.00;0.00;;;;;-146.67;29.81;74312.25;5076568;27;61801;-80
2022/07/05 06:56:53;;;;;;;;;0.00;0.00;;;;;-146.67;29.55;74310.25;5065212;27;61807;-80
2022/07/05 06:59:18;;;;;;;;;0.00;0.00;;;;;-146.67;30.04;74326.22;5062987;28;62070;-82
2022/07/05 07:01:44;;;;;;;;;4.00;4.00;;;;;-146.67;29.80;74328.22;5062755;27;62084;-82
2022/07/05 07:04:09;;;;;;;;;0.00;0.00;;;;;-146.67;29.98;74352.19;5060054;28;62082;-83
2022/07/05 07:06:34;;;;;;;;;0.00;0.00;;;;;-146.67;30.29;74364.16;5051036;28;63303;-82
2022/07/05 07:09:20;;;;;;;;;0.00;0.00;;;;;-146.67;30.54;74374.13;5050163;28;61941;-81
2022/07/05 07:11:47;;;;;;;;;0.00;0.00;;;;;-146.67;30.27;74356.16;5045729;28;61863;-82
2022/07/05 07:14:12;;;;;;;;;0.00;0.00;;;;;-146.67;30.12;74344.19;5051799;28;62336;-83
2022/07/05 07:16:38;;;;;;;;;0.00;0.00;;;;;-146.67;30.20;74366.16;5060718;28;61786;-82
2022/07/05 07:19:03;;;;;;;;;0.00;0.00;;;;;-146.67;30.42;74374.13;5059912;28;62254;-82
2022/07/05 07:21:29;;;;;;;;;0.00;0.00;;;;;-146.67;30.29;74358.16;5061775;28;62204;-82
2022/07/05 07:23:54;;;;;;;;;0.00;0.00;;;;;-146.67;29.96;74358.16;5060774;28;61919;-82
2022/07/05 07:26:20;;;;;;;;;0.00;0.00;;;;;-146.67;30.29;74354.16;5059737;28;63399;-82
2022/07/05 07:28:45;;;;;;;;;0.00;0.00;;;;;-146.67;30.45;74340.19;5060493;28;61773;-82
2022/07/05 07:31:11;;;;;;;;;0.00;0.00;;;;;-146.67;30.23;74342.19;5056769;28;61920;-83
2022/07/05 07:33:36;;;;;;;;;0.00;0.00;;;;;-146.67;30.43;74338.19;5054011;28;62256;-82
2022/07/05 07:36:03;;;;;;;;;0.00;0.00;;;;;-146.67;30.03;74334.22;5075385;28;63753;-83
2022/07/05 07:38:28;;;;;;;;;0.00;0.00;;;;;-146.67;30.12;74314.25;5058328;28;61844;-83
2022/07/05 07:40:54;;;;;;;;;0.00;0.00;;;;;-146.67;30.16;74314.25;5061259;28;61824;-82
2022/07/05 07:43:20;;;;;;;;;0.00;0.00;;;;;-146.67;29.87;74316.25;5056875;28;62206;-82
2022/07/05 07:45:45;;;;;;;;;0.00;0.00;;;;;-146.67;29.92;74318.25;5053027;28;62082;-83
2022/07/05 07:48:10;;;;;;;;;0.00;0.00;;;;;-146.67;30.26;74320.22;5060264;28;61884;-82
2022/07/05 07:50:36;;;;;;;;;0.00;0.00;;;;;-146.67;29.82;74312.25;5045807;28;61827;-83
2022/07/05 07:53:02;;;;;;;;;0.00;0.00;;;;;-146.67;30.17;74306.25;5058938;28;62056;-82
2022/07/05 07:55:29;;;;;;;;;0.00;0.00;;;;;-146.67;29.98;74318.25;5060473;28;62833;-82
2022/07/05 07:57:55;;;;;;;;;0.00;0.00;;;;;-146.67;30.22;74330.22;5058054;28;62132;-82
2022/07/05 08:00:20;;;;;;;;;0.00;0.00;;;;;-146.67;30.40;74338.19;5051896;28;61876;-83
2022/07/05 08:02:46;;;;;;;;;0.00;0.00;;;;;-146.67;30.12;74330.22;5053828;28;61932;-82
2022/07/05 08:05:12;;;;;;;;;0.00;0.00;;;;;-146.67;29.86;74326.22;5052851;28;61944;-83
2022/07/05 08:07:38;;;;;;;;;0.00;0.00;;;;;-146.67;29.96;74330.22;5054359;28;61982;-82
2022/07/05 08:10:05;;;;;;;;;0.00;0.00;;;;;-146.67;30.10;74342.19;5060850;28;61907;-83
2022/07/05 08:12:30;;;;;;;;;0.00;0.00;;;;;-146.67;29.92;74348.19;5056393;28;62126;-84
2022/07/05 08:14:56;;;;;;;;;0.00;0.00;;;;;-146.67;30.00;74344.19;5059692;28;61900;-83
2022/07/05 08:17:21;;;;;;;;;0.00;0.00;;;;;-146.67;30.00;74346.19;5046462;28;61937;-83
2022/07/05 08:22:30;;;;;;;;;0.00;0.00;;;;;-146.67;30.33;74336.19;5060258;28;61861;-83
2022/07/05 08:24:56;;;;;;;;;0.00;0.00;;;;;-146.67;30.03;74330.22;5058489;28;63649;-83
2022/07/05 08:27:22;;;;;;;;;0.00;0.00;;;;;-146.67;30.20;74326.22;5059210;28;62398;-83
2022/07/05 08:29:48;;;;;;;;;0.00;0.00;;;;;-146.67;29.80;74316.25;5059109;28;61873;-82
2022/07/05 08:32:14;;;;;;;;;0.00;0.00;;;;;-146.67;29.85;74292.28;5059321;28;62411;-83
2022/07/05 08:34:39;;;;;;;;;0.00;0.00;;;;;-146.67;29.50;74294.28;5061671;27;62531;-83
2022/07/05 08:37:06;;;;;;;;;0.00;0.00;;;;;-146.67;29.83;74304.25;5059984;28;61920;-82
2022/07/05 08:39:32;;;;;;;;;0.00;0.00;;;;;-146.67;29.82;74302.25;5059339;28;62003;-83
2022/07/05 08:41:59;;;;;;;;;0.00;0.00;;;;;-146.67;29.43;74282.31;5055969;28;61904;-82
2022/07/05 08:44:28;;;;;;;;;0.00;0.00;;;;;-146.67;29.73;74276.31;5058802;28;64120;-82
2022/07/05 08:46:56;;;;;;;;;0.00;0.00;;;;;-146.67;29.83;74268.31;5060040;28;61853;-83
2022/07/05 08:49:24;;;;;;;;;0.00;0.00;;;;;-146.67;29.59;74266.34;5055241;28;61810;-83
2022/07/05 08:51:50;;;;;;;;;0.00;0.00;;;;;-146.67;29.44;74252.34;5052191;28;61844;-82
2022/07/05 08:54:16;;;;;;;;;0.00;0.00;;;;;-146.67;29.36;74256.34;5058183;28;61943;-83
2022/07/05 08:56:42;;;;;;;;;0.00;0.00;;;;;-146.67;29.28;74264.34;5054444;28;62234;-83
2022/07/05 08:59:08;;;;;;;;;0.00;0.00;;;;;-146.67;29.26;74240.38;5060081;28;62002;-82
2022/07/05 09:01:35;;;;;;;;;0.00;0.00;;;;;-146.67;29.16;74240.38;5059291;28;61881;-83
2022/07/05 09:04:04;;;;;;;;;0.00;0.00;;;;;-146.67;29.28;74238.38;5062391;28;61822;-83
2022/07/05 09:06:32;;;;;;;;;0.00;0.00;;;;;-146.67;29.46;74218.41;5058503;28;61943;-84
2022/07/05 09:08:59;;;;;;;;;0.00;0.00;;;;;-146.67;28.99;74220.41;5063849;28;61955;-83
2022/07/05 09:11:31;;;;;;;;;0.00;0.00;;;;;-146.67;28.95;74230.41;5058067;28;61959;-83
2022/07/05 09:13:57;;;;;;;;;0.00;0.00;;;;;-146.67;29.26;74230.41;5076965;28;63897;-82
2022/07/05 09:16:23;;;;;;;;;0.00;0.00;;;;;-146.67;29.33;74202.44;5062580;28;62376;-82
2022/07/05 09:18:50;;;;;;;;;0.00;0.00;;;;;-146.67;28.86;74206.44;5064436;28;61777;-83
2022/07/05 09:21:22;;;;;;;;;0.00;0.00;;;;;-146.67;28.58;74188.47;5062092;28;62217;-84
2022/07/05 09:24:02;;;;;;;;;0.00;0.00;;;;;-146.67;28.47;74186.47;5063797;28;62340;-84
2022/07/05 09:26:35;;;;;;;;;0.00;0.00;;;;;-146.67;28.54;74168.50;5064660;28;62012;-83
2022/07/05 09:29:03;;;;;;;;;0.00;0.00;;;;;-146.67;28.13;74172.50;5063519;28;61837;-84
2022/07/05 09:31:31;;;;;;;;;0.00;0.00;;;;;-146.67;28.03;74174.50;5065333;28;61797;-84
2022/07/05 09:34:09;;;;;;;;;0.00;0.00;;;;;-146.67;28.30;74176.50;5063580;28;62003;-84
2022/07/05 09:36:57;;;;;;;;;0.00;0.00;;;;;-146.67;28.26;74150.53;5062623;28;62110;-84
2022/07/05 09:39:29;;;;;;;;;0.00;0.00;;;;;-146.67;28.27;74122.59;5067717;28;62087;-83
2022/07/05 09:42:14;;;;;;;;;0.00;0.00;;;;;-146.67;28.13;74120.59;5076127;28;62941;-84
2022/07/05 09:44:45;;;;;;;;;0.00;0.00;;;;;-146.67;28.07;74118.59;5072461;28;62476;-83
2022/07/05 09:47:13;;;;;;;;;0.00;0.00;;;;;-146.67;28.32;74108.63;5076057;27;62455;-83
2022/07/05 09:49:46;;;;;;;;;0.00;0.00;;;;;-146.67;27.82;74114.63;5073892;28;61971;-83
2022/07/05 09:52:35;;;;;;;;;0.00;0.00;;;;;-146.67;28.07;74104.63;5085264;28;62304;-84
2022/07/05 09:55:02;;;;;;;;;0.00;0.00;;;;;-146.67;28.07;74126.59;5073940;27;62033;-84
2022/07/05 09:57:28;;;;;;;;;1.00;1.00;;;;;-146.67;28.10;74112.63;5083318;27;61890;-83
2022/07/05 10:00:04;;;;;;;;;0.00;0.00;;;;;-146.67;27.84;74090.66;5080505;28;61996;-84
2022/07/05 10:02:50;;;;;;;;;0.00;0.00;;;;;-146.67;27.84;74070.69;5062645;28;61758;-83
2022/07/05 10:05:21;;;;;;;;;0.00;0.00;;;;;-146.67;27.52;74034.75;5057590;28;64078;-83
2022/07/05 10:07:52;;;;;;;;;0.00;0.00;;;;;-146.67;27.32;74040.75;5060540;28;62062;-83
2022/07/05 10:10:22;;;;;;;;;0.00;0.00;;;;;-146.67;27.42;74024.78;5057624;28;61913;-83
2022/07/05 10:12:51;;;;;;;;;0.00;0.00;;;;;-146.67;27.53;74002.81;5048817;28;61752;-84
2022/07/05 10:15:20;;;;;;;;;0.00;0.00;;;;;-146.67;27.27;73954.91;5061610;28;61901;-83
2022/07/05 10:18:10;;;;;;;;;0.00;0.00;;;;;-146.67;27.02;73918.97;5062371;28;61732;-83
2022/07/05 10:20:43;;;;;;;;;0.00;0.00;;;;;-146.67;26.87;73948.94;5061373;28;61825;-84
2022/07/05 10:23:12;;;;;;;;;0.00;0.00;;;;;-146.67;26.76;73932.97;5062110;28;62092;-82
2022/07/05 10:25:40;;;;;;;;;0.00;0.00;;;;;-146.67;26.67;73946.94;5061943;28;62615;-82
2022/07/05 10:28:07;;;;;;;;;0.00;0.00;;;;;-146.67;26.59;73952.91;5062745;28;61770;-82
2022/07/05 10:30:35;;;;;;;;;0.00;0.00;;;;;-146.67;26.69;73928.97;5061748;28;61947;-83
2022/07/05 10:33:07;;;;;;;;;0.00;0.00;;;;;-146.67;26.46;73907.00;5056170;28;61818;-83
2022/07/05 10:35:34;;;;;;;;;0.00;0.00;;;;;-146.67;26.50;73881.06;5060953;28;62663;-83
2022/07/05 10:38:01;;;;;;;;;0.00;0.00;;;;;-146.67;26.68;73863.09;5061555;28;61919;-85
2022/07/05 10:40:31;;;;;;;;;0.00;0.00;;;;;-146.67;26.33;73877.06;5059714;28;62015;-84
2022/07/05 10:43:00;;;;;;;;;0.00;0.00;;;;;-146.67;26.39;73889.03;5058045;28;62177;-83
2022/07/05 10:45:30;;;;;;;;;0.00;0.00;;;;;-146.67;26.48;73875.06;5058632;28;61860;-86
2022/07/05 10:48:11;;;;;;;;;0.00;0.00;;;;;-146.67;26.24;73883.06;5064416;28;61809;-82
2022/07/05 10:50:43;;;;;;;;;0.00;0.00;;;;;-146.67;26.22;73855.09;5070258;28;61932;-82
2022/07/05 10:53:09;;;;;;;;;0.00;0.00;;;;;-146.67;26.28;73851.13;5072422;28;61904;-85
2022/07/05 10:55:58;;;;;;;;;0.00;0.00;;;;;-146.67;26.37;73833.16;5072897;28;62031;-82
2022/07/05 10:58:27;;;;;;;;;0.00;0.00;;;;;-146.67;25.87;73823.16;5069174;28;63039;-82
2022/07/05 11:01:11;;;;;;;;;0.00;0.00;;;;;-146.67;25.92;73789.25;5070072;28;62023;-79
2022/07/05 11:03:40;;;;;;;;;0.00;0.00;;;;;-146.67;25.85;73783.25;5071905;28;61863;-79
2022/07/05 11:06:07;;;;;;;;;0.00;0.00;;;;;-146.67;25.80;73799.22;5061937;28;61956;-80
2022/07/05 11:09:00;;;;;;;;;0.00;0.00;;;;;-146.67;25.56;73811.19;5059150;28;61836;-80
2022/07/05 11:11:28;;;;;;;;;0.00;0.00;;;;;-146.67;25.47;73817.19;5043465;28;61875;-83
2022/07/05 11:13:55;;;;;;;;;0.00;0.00;;;;;-146.67;25.73;73779.25;5052074;28;61866;-79
2022/07/05 11:16:31;;;;;;;;;0.00;0.00;;;;;-146.67;25.25;73727.34;5061725;28;61709;-78
2022/07/05 11:19:12;;;;;;;;;0.00;0.00;;;;;-146.67;25.36;73715.38;5062557;28;61808;-81
2022/07/05 11:22:03;;;;;;;;;0.00;0.00;;;;;-146.67;25.16;73705.41;5058055;28;61957;-75
2022/07/05 11:24:33;;;;;;;;;0.00;0.00;;;;;-146.67;24.81;73733.34;5060170;28;62123;-77